Time;durP1;ratioP1;P1;durP2;ratioP2;P2;SDS_P1;SDS_P2;PMS_P1;PMS_P2;Temp;Humidity;BMP_temperature;BMP_pressure;BME280_temperature;BME280_humidity;BME280_pressure;Samples;Min_cycle;Max_cycle;Signal;HPM_P1;HPM_P2
2021/05/13 00:00:24;;;;;;;4.97;4.50;;;;;;;13.11;40.75;100443.91;5002133;28;97968;-69
2021/05/13 00:02:52;;;;;;;5.15;4.22;;;;;;;13.15;40.53;100448.34;5003737;28;96921;-69
2021/05/13 00:05:20;;;;;;;6.18;4.68;;;;;;;13.15;40.38;100446.59;5004184;28;97039;-70
2021/05/13 00:07:48;;;;;;;5.97;4.50;;;;;;;13.05;40.67;100443.84;5007965;28;98972;-70
2021/05/13 00:10:20;;;;;;;5.30;4.32;;;;;;;12.98;40.81;100439.34;5003360;28;101640;-70
2021/05/13 00:12:51;;;;;;;7.03;5.50;;;;;;;12.98;40.90;100436.66;5002185;28;97873;-70
2021/05/13 00:15:21;;;;;;;7.63;4.28;;;;;;;13.03;40.88;100429.59;5007341;28;97581;-70
2021/05/13 00:17:49;;;;;;;4.68;4.28;;;;;;;13.01;40.71;100431.38;5004882;28;97078;-69
2021/05/13 00:20:20;;;;;;;4.78;4.30;;;;;;;13.00;40.76;100432.25;5002539;28;98490;-69
2021/05/13 00:22:49;;;;;;;4.68;4.30;;;;;;;13.00;40.75;100437.59;5003302;28;97870;-70
2021/05/13 00:25:18;;;;;;;5.85;4.40;;;;;;;13.01;40.52;100432.25;5006971;28;97672;-69
2021/05/13 00:27:46;;;;;;;4.72;4.32;;;;;;;13.01;40.44;100426.91;5003390;28;98116;-70
2021/05/13 00:30:15;;;;;;;4.43;4.13;;;;;;;13.01;40.76;100426.03;5002161;28;97560;-69
2021/05/13 00:32:42;;;;;;;4.50;4.10;;;;;;;13.01;40.41;100426.03;5007208;28;97383;-69
2021/05/13 00:35:12;;;;;;;5.07;4.07;;;;;;;13.02;40.45;100427.81;5005217;28;97645;-69
2021/05/13 00:37:40;;;;;;;7.72;4.65;;;;;;;12.99;40.57;100430.41;5004850;28;97850;-70
2021/05/13 00:40:11;;;;;;;4.82;3.95;;;;;;;12.97;40.78;100429.50;5004045;28;99289;-69
2021/05/13 00:42:39;;;;;;;4.38;4.03;;;;;;;12.95;40.48;100423.25;5005852;28;97107;-69
2021/05/13 00:45:08;;;;;;;4.10;3.80;;;;;;;12.94;40.42;100426.84;5004215;28;98700;-70
2021/05/13 00:47:43;;;;;;;4.78;3.90;;;;;;;12.92;40.46;100426.84;4997246;28;97884;-70
2021/05/13 00:50:11;;;;;;;5.20;4.10;;;;;;;12.90;40.34;100419.69;5000676;28;97809;-70
2021/05/13 00:52:39;;;;;;;5.07;3.67;;;;;;;12.89;40.42;100416.13;5006673;28;97284;-70
2021/05/13 00:55:10;;;;;;;4.18;3.78;;;;;;;12.82;40.41;100410.75;5005312;28;96952;-70
2021/05/13 00:57:40;;;;;;;4.32;4.03;;;;;;;12.80;40.35;100410.72;5004109;28;97519;-71
2021/05/13 01:00:30;;;;;;;4.13;3.83;;;;;;;12.80;40.45;100412.53;5002799;28;97805;-70
2021/05/13 01:02:58;;;;;;;7.40;3.63;;;;;;;12.80;40.32;100401.84;5003630;28;97266;-70
2021/05/13 01:05:26;;;;;;;3.90;3.60;;;;;;;12.80;40.22;100405.38;5000500;28;97760;-70
2021/05/13 01:07:56;;;;;;;6.70;3.88;;;;;;;12.79;40.38;100406.28;5004296;28;99280;-69
2021/05/13 01:10:25;;;;;;;3.38;3.15;;;;;;;12.78;40.18;100406.28;5002694;28;97712;-70
2021/05/13 01:12:54;;;;;;;3.17;2.97;;;;;;;12.71;40.23;100415.13;5002044;28;96900;-69
2021/05/13 01:15:25;;;;;;;3.33;3.13;;;;;;;12.68;40.34;100404.41;5011511;28;97297;-69
2021/05/13 01:18:02;;;;;;;3.90;3.22;;;;;;;12.63;40.24;100409.75;5003586;28;97787;-69
2021/05/13 01:20:30;;;;;;;3.22;3.10;;;;;;;12.60;40.30;100408.81;5003499;28;97930;-70
2021/05/13 01:23:00;;;;;;;3.40;3.10;;;;;;;12.54;40.47;100411.44;5005345;28;97040;-69
2021/05/13 01:25:28;;;;;;;4.95;3.10;;;;;;;12.52;40.40;100411.44;5001732;28;97045;-70
2021/05/13 01:27:57;;;;;;;3.25;3.05;;;;;;;12.48;40.58;100400.72;5003892;28;98719;-70
2021/05/13 01:30:26;;;;;;;3.45;3.20;;;;;;;12.47;40.64;100404.28;5003376;28;97631;-70
2021/05/13 01:32:55;;;;;;;3.60;3.40;;;;;;;12.48;40.56;100398.03;5003182;28;96855;-69
2021/05/13 01:35:22;;;;;;;3.63;3.33;;;;;;;12.47;40.50;100399.84;5001056;28;97241;-69
2021/05/13 01:38:02;;;;;;;3.28;2.88;;;;;;;12.42;40.63;100398.91;5012905;28;97644;-69
2021/05/13 01:40:30;;;;;;;3.35;3.05;;;;;;;12.46;40.35;100391.78;5006367;28;98250;-70
2021/05/13 01:42:58;;;;;;;6.22;3.65;;;;;;;12.45;40.40;100392.69;5008743;28;97745;-70
2021/05/13 01:45:26;;;;;;;3.22;3.08;;;;;;;12.43;40.36;100394.47;5004643;28;97804;-71
2021/05/13 01:48:01;;;;;;;3.50;3.30;;;;;;;12.44;40.51;100382.88;5013276;28;98018;-69
2021/05/13 01:50:30;;;;;;;3.40;3.20;;;;;;;12.41;40.51;100382.88;5010759;28;99480;-69
2021/05/13 01:52:59;;;;;;;3.05;2.88;;;;;;;12.38;40.67;100380.19;5005113;28;99704;-68
2021/05/13 01:55:29;;;;;;;3.33;3.15;;;;;;;12.38;40.63;100380.19;5009429;28;97332;-69
2021/05/13 01:57:57;;;;;;;3.20;3.00;;;;;;;12.35;40.55;100375.72;5007325;28;98984;-70
2021/05/13 02:00:25;;;;;;;3.60;3.30;;;;;;;12.32;40.66;100382.81;5003324;28;97728;-70
2021/05/13 02:02:53;;;;;;;3.53;3.20;;;;;;;12.23;40.60;100374.75;4996979;28;96935;-69
2021/05/13 02:05:22;;;;;;;3.75;3.45;;;;;;;12.21;40.78;100369.41;4999934;28;97667;-70
2021/05/13 02:07:50;;;;;;;3.38;3.08;;;;;;;12.20;40.73;100364.06;5002582;28;98726;-70
2021/05/13 02:10:18;;;;;;;3.55;3.20;;;;;;;12.17;40.69;100360.47;5001132;28;98526;-70
2021/05/13 02:12:48;;;;;;;3.85;3.58;;;;;;;12.16;40.50;100366.63;5003332;28;97089;-69
2021/05/13 02:15:17;;;;;;;4.43;3.22;;;;;;;12.12;40.68;100361.28;5000830;28;97408;-68
2021/05/13 02:17:45;;;;;;;3.78;3.47;;;;;;;12.08;40.69;100360.38;5000744;28;98300;-69
2021/05/13 02:20:17;;;;;;;4.10;3.40;;;;;;;12.06;40.75;100356.78;5001784;28;98013;-69
2021/05/13 02:22:45;;;;;;;5.32;4.07;;;;;;;11.99;40.66;100351.38;5000641;28;97620;-69
2021/05/13 02:25:13;;;;;;;3.85;3.58;;;;;;;11.94;40.74;100340.66;5001314;28;97565;-69
2021/05/13 02:27:41;;;;;;;4.38;4.07;;;;;;;11.90;41.14;100340.66;5003734;28;98681;-69
2021/05/13 02:30:12;;;;;;;5.20;3.70;;;;;;;11.87;40.84;100336.16;5000597;28;97948;-69
2021/05/13 02:32:40;;;;;;;3.85;3.55;;;;;;;11.87;40.89;100340.63;5002287;28;97035;-68
2021/05/13 02:35:10;;;;;;;3.97;3.67;;;;;;;11.82;41.06;100335.25;5001726;28;97322;-69
2021/05/13 02:37:38;;;;;;;4.22;3.88;;;;;;;11.78;40.87;100333.41;4998910;28;98351;-69
2021/05/13 02:40:07;;;;;;;4.72;3.70;;;;;;;11.72;41.19;100328.06;5001806;28;97550;-69
2021/05/13 02:42:35;;;;;;;6.25;4.13;;;;;;;11.74;41.10;100322.75;5000979;28;97425;-69
2021/05/13 02:45:04;;;;;;;3.92;3.63;;;;;;;11.66;41.12;100335.09;5002451;28;97823;-69
2021/05/13 02:47:32;;;;;;;4.55;3.72;;;;;;;11.63;41.15;100330.63;5002856;28;97852;-70
2021/05/13 02:50:00;;;;;;;3.80;3.50;;;;;;;11.59;41.14;100327.91;5001491;28;98892;-69
2021/05/13 02:52:28;;;;;;;4.88;4.47;;;;;;;11.52;41.34;100326.97;4998890;28;96859;-70
2021/05/13 02:54:56;;;;;;;4.20;3.90;;;;;;;11.49;41.25;100329.59;5002299;28;98529;-69
2021/05/13 02:57:24;;;;;;;5.60;4.30;;;;;;;11.52;41.24;100329.63;4982094;28;99696;-70
2021/05/13 02:59:56;;;;;;;4.45;4.15;;;;;;;11.51;41.49;100324.25;4997180;28;97813;-70
2021/05/13 03:02:24;;;;;;;5.70;4.68;;;;;;;11.52;41.33;100326.06;5002893;28;97445;-70
2021/05/13 03:04:52;;;;;;;4.28;3.88;;;;;;;11.54;41.14;100316.31;5002271;28;98523;-69
2021/05/13 03:07:20;;;;;;;4.82;4.45;;;;;;;11.52;41.31;100313.66;4999901;28;97905;-69
2021/05/13 03:09:53;;;;;;;5.85;4.32;;;;;;;11.51;41.21;100311.84;5001991;28;98029;-69
2021/05/13 03:12:21;;;;;;;5.47;4.30;;;;;;;11.48;41.35;100306.50;4993401;28;97615;-69
2021/05/13 03:14:49;;;;;;;5.53;5.13;;;;;;;11.51;41.26;100310.94;5001249;28;97179;-70
2021/05/13 03:17:17;;;;;;;5.38;4.60;;;;;;;11.49;41.60;100310.94;5001830;28;97991;-70
2021/05/13 03:19:47;;;;;;;5.40;4.30;;;;;;;11.48;41.64;100313.59;4999468;28;98657;-70
2021/05/13 03:22:18;;;;;;;4.32;4.03;;;;;;;11.53;41.36;100309.19;5001789;28;97155;-70
2021/05/13 03:24:49;;;;;;;6.07;4.82;;;;;;;11.55;41.40;100311.00;5000723;28;96901;-70
2021/05/13 03:27:27;;;;;;;6.60;4.20;;;;;;;11.57;41.32;100303.03;4999612;28;97545;-70
2021/05/13 03:29:56;;;;;;;7.35;5.05;;;;;;;11.56;41.10;100293.25;5017259;28;97706;-69
2021/05/13 03:32:23;;;;;;;5.72;4.65;;;;;;;11.58;41.29;100305.69;5001861;28;97005;-69
2021/05/13 03:34:51;;;;;;;4.63;4.22;;;;;;;11.58;41.17;100300.38;5000621;28;96819;-70
2021/05/13 03:37:25;;;;;;;5.20;4.60;;;;;;;11.58;41.50;100295.03;4999715;28;97877;-69
2021/05/13 03:39:53;;;;;;;6.75;4.13;;;;;;;11.59;41.10;100304.84;5001437;28;96930;-69
2021/05/13 03:42:20;;;;;;;8.85;4.72;;;;;;;11.62;41.17;100295.94;5000761;28;98817;-69
2021/05/13 03:44:48;;;;;;;5.45;4.68;;;;;;;11.61;41.38;100302.19;5002876;28;96863;-69
2021/05/13 03:47:16;;;;;;;7.68;4.57;;;;;;;11.72;41.28;100298.75;5002740;28;97451;-69
2021/05/13 03:49:45;;;;;;;6.50;4.78;;;;;;;11.72;41.31;100300.50;4997244;28;98824;-69
2021/05/13 03:52:12;;;;;;;5.18;4.25;;;;;;;11.75;41.18;100297.84;5003310;28;98087;-69
2021/05/13 03:54:42;;;;;;;7.25;4.78;;;;;;;11.80;41.12;100291.69;5002124;28;97142;-69
2021/05/13 03:57:10;;;;;;;6.65;4.63;;;;;;;11.86;41.12;100296.16;5000655;28;100708;-69
2021/05/13 03:59:39;;;;;;;6.13;5.38;;;;;;;11.90;40.66;100301.56;5001002;28;97753;-69
2021/05/13 04:02:11;;;;;;;5.13;4.63;;;;;;;11.94;40.81;100297.13;4997680;28;100253;-69
2021/05/13 04:04:39;;;;;;;8.32;4.82;;;;;;;11.97;40.92;100305.16;5015110;28;96956;-70
2021/05/13 04:07:07;;;;;;;7.60;5.07;;;;;;;12.01;41.00;100304.31;4997890;28;97167;-70
2021/05/13 04:09:35;;;;;;;5.20;4.70;;;;;;;12.01;40.83;100296.31;4998326;28;97133;-69
2021/05/13 04:12:04;;;;;;;6.80;4.63;;;;;;;11.97;40.95;100290.06;5000860;28;97667;-69
2021/05/13 04:14:31;;;;;;;7.18;5.25;;;;;;;11.96;40.81;100290.91;5002470;28;96921;-70
2021/05/13 04:17:01;;;;;;;4.65;4.13;;;;;;;11.98;41.01;100286.50;5000343;28;97787;-69
2021/05/13 04:19:29;;;;;;;4.95;4.22;;;;;;;12.02;40.82;100287.41;5000375;28;98361;-69
2021/05/13 04:21:57;;;;;;;5.30;4.78;;;;;;;12.03;40.83;100283.88;5000888;28;97606;-70
2021/05/13 04:24:25;;;;;;;20.50;12.13;;;;;;;11.99;40.91;100280.28;5000275;28;97807;-70
2021/05/13 04:26:53;;;;;;;8.18;6.07;;;;;;;11.99;40.83;100282.97;5003174;28;97488;-70
2021/05/13 04:29:22;;;;;;;6.45;4.93;;;;;;;12.01;41.03;100275.88;5000045;28;98119;-70
2021/05/13 04:31:50;;;;;;;5.03;4.63;;;;;;;11.98;40.97;100270.50;5003659;28;97823;-70
2021/05/13 04:34:18;;;;;;;7.97;4.63;;;;;;;11.96;40.94;100268.72;4998012;28;97987;-70
2021/05/13 04:36:46;;;;;;;5.70;5.20;;;;;;;11.95;41.05;100267.81;5001541;28;98092;-69
2021/05/13 04:39:14;;;;;;;14.75;10.25;;;;;;;11.99;41.00;100260.72;5005570;28;100348;-70
2021/05/13 04:41:41;;;;;;;6.47;5.50;;;;;;;12.04;40.89;100261.66;5000661;28;97316;-70
2021/05/13 04:44:09;;;;;;;10.32;5.15;;;;;;;12.04;41.01;100259.88;5003869;28;97534;-70
2021/05/13 04:46:38;;;;;;;5.15;4.63;;;;;;;12.05;41.02;100266.13;5000347;28;97909;-71
2021/05/13 04:49:18;;;;;;;7.28;5.68;;;;;;;12.05;40.95;100258.97;5006350;28;100905;-71
2021/05/13 04:51:46;;;;;;;6.13;5.50;;;;;;;12.10;40.89;100259.94;5007676;28;97099;-71
2021/05/13 04:54:15;;;;;;;7.47;5.55;;;;;;;12.14;40.72;100250.16;5008758;28;96935;-70
2021/05/13 04:56:43;;;;;;;6.53;5.78;;;;;;;12.08;40.80;100244.78;5008608;28;96801;-71
2021/05/13 04:59:11;;;;;;;7.18;5.60;;;;;;;12.11;40.96;100244.78;5004294;28;102281;-70
2021/05/13 05:01:40;;;;;;;8.32;5.35;;;;;;;12.12;40.70;100241.25;5006161;28;97562;-70
2021/05/13 05:04:08;;;;;;;6.15;5.13;;;;;;;12.15;40.66;100247.50;5002052;28;97176;-69
2021/05/13 05:06:36;;;;;;;8.38;6.15;;;;;;;12.22;40.65;100236.91;5000646;28;97898;-70
2021/05/13 05:09:06;;;;;;;7.45;5.93;;;;;;;12.28;40.45;100234.25;5005279;28;98092;-70
2021/05/13 05:11:33;;;;;;;7.10;5.28;;;;;;;12.26;40.52;100228.91;5004332;28;97588;-70
2021/05/13 05:14:02;;;;;;;5.82;5.32;;;;;;;12.24;40.74;100221.81;5006427;28;97254;-70
2021/05/13 05:16:30;;;;;;;5.90;5.40;;;;;;;12.20;40.82;100223.53;5002657;28;99124;-70
2021/05/13 05:18:58;;;;;;;6.40;5.80;;;;;;;12.23;40.78;100217.34;5004167;28;97793;-70
2021/05/13 05:21:26;;;;;;;6.78;5.30;;;;;;;12.25;40.73;100204.91;5002651;28;98126;-70
2021/05/13 05:23:54;;;;;;;6.82;5.97;;;;;;;12.33;40.54;100214.72;5003713;28;97408;-70
2021/05/13 05:26:22;;;;;;;10.00;7.20;;;;;;;12.32;40.58;100207.63;5003818;28;98101;-70
2021/05/13 05:28:50;;;;;;;27.08;16.48;;;;;;;12.40;40.39;100199.66;5001962;28;98161;-70
2021/05/13 05:31:17;;;;;;;10.02;6.82;;;;;;;12.43;40.30;100211.25;5004045;28;96999;-71
2021/05/13 05:33:45;;;;;;;7.88;6.43;;;;;;;12.46;40.34;100205.00;4998547;28;96742;-71
2021/05/13 05:36:14;;;;;;;8.43;6.28;;;;;;;12.47;40.42;100202.38;4996170;28;98614;-70
2021/05/13 05:38:42;;;;;;;8.27;6.13;;;;;;;12.54;40.17;100205.94;5000162;28;98045;-71
2021/05/13 05:41:12;;;;;;;6.65;5.95;;;;;;;12.58;40.17;100205.06;5005495;28;97061;-73
2021/05/13 05:43:40;;;;;;;7.00;6.32;;;;;;;12.62;40.28;100196.19;5004215;28;97780;-69
2021/05/13 05:46:08;;;;;;;7.75;6.70;;;;;;;12.61;40.14;100197.97;5002207;28;98422;-68
2021/05/13 05:48:36;;;;;;;13.25;8.20;;;;;;;12.66;40.15;100200.63;4997123;28;98878;-70
2021/05/13 05:51:04;;;;;;;6.47;5.82;;;;;;;12.65;40.08;100202.44;4990498;28;98796;-70
2021/05/13 05:53:33;;;;;;;7.65;6.45;;;;;;;12.69;40.10;100206.88;5006851;28;97052;-70
2021/05/13 05:56:01;;;;;;;7.22;6.53;;;;;;;12.67;40.15;100199.75;4997520;28;97572;-70
2021/05/13 05:58:29;;;;;;;6.57;5.90;;;;;;;12.67;40.14;100195.31;4997722;28;97570;-72
2021/05/13 06:00:57;;;;;;;7.50;6.75;;;;;;;12.67;40.15;100199.75;4997754;28;96871;-70
2021/05/13 06:03:25;;;;;;;8.27;6.85;;;;;;;12.66;40.27;100192.63;4990856;28;97433;-70
2021/05/13 06:05:54;;;;;;;7.22;6.32;;;;;;;12.64;40.19;100192.63;4997699;28;98059;-70
2021/05/13 06:08:21;;;;;;;6.95;6.05;;;;;;;12.64;40.31;100189.06;5003026;28;99428;-70
2021/05/13 06:10:50;;;;;;;7.40;6.65;;;;;;;12.65;40.22;100197.09;5003352;28;96902;-70
2021/05/13 06:13:18;;;;;;;7.50;6.07;;;;;;;12.68;40.07;100197.09;4987243;28;97902;-70
2021/05/13 06:15:46;;;;;;;30.60;19.35;;;;;;;12.73;40.12;100189.97;4994030;28;98482;-70
2021/05/13 06:18:14;;;;;;;11.48;8.52;;;;;;;12.73;40.02;100194.44;4990604;28;97852;-70
2021/05/13 06:20:42;;;;;;;9.18;7.07;;;;;;;12.75;40.10;100189.97;4989412;28;97284;-69
2021/05/13 06:23:10;;;;;;;7.53;6.65;;;;;;;12.78;40.09;100192.69;4996776;28;97500;-70
2021/05/13 06:25:38;;;;;;;8.93;6.55;;;;;;;12.89;39.95;100194.47;5002757;28;97811;-70
2021/05/13 06:28:09;;;;;;;7.13;6.47;;;;;;;12.97;39.71;100195.38;5009033;28;99092;-69
2021/05/13 06:30:38;;;;;;;8.48;7.18;;;;;;;12.94;39.96;100194.50;5000726;28;97145;-70
2021/05/13 06:33:06;;;;;;;11.15;6.90;;;;;;;12.91;39.91;100190.03;4999717;28;98774;-71
2021/05/13 06:35:38;;;;;;;10.00;6.60;;;;;;;12.92;39.72;100188.25;4999057;28;98975;-70
2021/05/13 06:38:08;;;;;;;7.45;6.47;;;;;;;;;;4983164;28;98299;-69
2021/05/13 06:40:36;;;;;;;7.35;6.65;;;;;;;12.92;40.04;100197.16;4985899;28;98026;-70
2021/05/13 06:43:04;;;;;;;10.10;7.05;;;;;;;13.00;39.89;100206.09;4988524;28;97804;-70
2021/05/13 06:45:33;;;;;;;49.17;31.60;;;;;;;13.03;39.94;100203.47;4998134;28;101250;-69
2021/05/13 06:48:00;;;;;;;29.15;18.75;;;;;;;13.08;39.84;100208.78;4993327;28;98699;-69
2021/05/13 06:50:31;;;;;;;11.38;8.57;;;;;;;13.12;39.83;100211.50;4990918;28;96871;-71
2021/05/13 06:52:59;;;;;;;9.32;7.07;;;;;;;13.14;39.80;100209.72;5001294;28;97741;-70
2021/05/13 06:55:27;;;;;;;7.90;6.68;;;;;;;13.21;39.69;100215.94;4997187;28;98334;-71
2021/05/13 06:57:54;;;;;;;7.85;7.03;;;;;;;13.23;39.63;100214.16;5002521;28;97746;-70
2021/05/13 07:00:24;;;;;;;10.88;7.72;;;;;;;13.28;39.48;100214.16;4996908;28;97609;-70
2021/05/13 07:03:02;;;;;;;11.25;7.82;;;;;;;13.29;39.52;100213.28;5001992;28;96900;-69
2021/05/13 07:05:30;;;;;;;9.30;7.28;;;;;;;13.30;39.68;100215.06;4991627;28;98857;-69
2021/05/13 07:07:58;;;;;;;10.85;8.05;;;;;;;13.31;39.62;100212.41;4996736;28;99207;-70
2021/05/13 07:10:26;;;;;;;9.50;6.43;;;;;;;13.36;39.58;100217.75;4998632;28;96944;-71
2021/05/13 07:12:53;;;;;;;8.55;7.22;;;;;;;13.38;39.63;100222.22;5002006;28;98319;-71
2021/05/13 07:15:31;;;;;;;17.30;10.60;;;;;;;13.40;39.58;100217.75;5002494;28;99214;-71
2021/05/13 07:17:59;;;;;;;11.80;7.90;;;;;;;13.29;39.77;100214.19;5001616;28;99008;-71
2021/05/13 07:20:28;;;;;;;9.65;7.60;;;;;;;13.28;39.90;100212.38;4999936;28;97835;-71
2021/05/13 07:22:57;;;;;;;12.13;8.80;;;;;;;13.21;40.11;100202.59;4984669;28;97507;-71
2021/05/13 07:25:25;;;;;;;11.18;9.32;;;;;;;13.25;39.96;100206.16;4991158;28;99505;-71
2021/05/13 07:27:53;;;;;;;35.25;20.10;;;;;;;13.29;40.00;100206.16;4990392;28;98406;-70
2021/05/13 07:30:21;;;;;;;42.97;27.42;;;;;;;13.37;39.82;100207.03;4985364;28;97829;-70
2021/05/13 07:32:49;;;;;;;25.65;14.50;;;;;;;13.38;39.91;100202.59;4999085;28;96921;-72
2021/05/13 07:35:18;;;;;;;13.68;9.35;;;;;;;13.37;39.77;100204.38;4993804;27;98448;-71
2021/05/13 07:37:47;;;;;;;11.90;8.90;;;;;;;13.32;39.83;100195.47;4995243;28;98176;-70
2021/05/13 07:40:18;;;;;;;13.00;9.25;;;;;;;13.28;39.96;100193.69;4994118;28;97783;-70
2021/05/13 07:42:46;;;;;;;12.40;9.07;;;;;;;13.32;40.05;100199.91;4978180;28;98343;-71
2021/05/13 07:45:14;;;;;;;14.90;9.27;;;;;;;13.26;40.12;100194.59;4996162;28;97381;-71
2021/05/13 07:47:42;;;;;;;16.95;8.98;;;;;;;13.19;40.13;100196.34;4996295;28;97900;-69
2021/05/13 07:50:12;;;;;;;15.05;9.55;;;;;;;13.16;40.23;100196.34;4994165;28;97162;-68
2021/05/13 07:52:40;;;;;;;17.92;9.90;;;;;;;13.09;40.37;100194.56;4996725;28;97355;-67
2021/05/13 07:55:10;;;;;;;12.32;9.07;;;;;;;13.06;40.41;100190.09;4968928;28;99296;-68
2021/05/13 07:57:38;;;;;;;13.30;8.93;;;;;;;13.01;40.54;100190.97;4991206;28;97418;-69
2021/05/13 08:00:07;;;;;;;14.27;9.25;;;;;;;13.00;40.54;100195.41;4990648;28;97265;-68
2021/05/13 08:02:41;;;;;;;13.68;9.68;;;;;;;13.05;40.72;100191.00;4995959;28;97129;-68
2021/05/13 08:05:10;;;;;;;12.57;9.27;;;;;;;13.08;40.50;100187.41;4988020;28;100152;-69
2021/05/13 08:07:37;;;;;;;11.52;9.13;;;;;;;13.10;40.45;100191.88;4995521;28;97818;-68
2021/05/13 08:10:06;;;;;;;12.48;9.30;;;;;;;13.16;40.31;100191.00;4989625;28;98558;-68
2021/05/13 08:12:35;;;;;;;12.80;9.23;;;;;;;13.21;40.34;100205.25;4995255;28;97740;-68
2021/05/13 08:15:04;;;;;;;21.63;13.05;;;;;;;13.20;40.25;100206.16;4996756;28;97909;-68
2021/05/13 08:17:32;;;;;;;13.13;9.95;;;;;;;13.17;40.24;100199.03;4992245;28;99741;-68
2021/05/13 08:20:00;;;;;;;12.73;8.75;;;;;;;13.21;40.17;100202.59;4996344;28;97386;-69
2021/05/13 08:22:27;;;;;;;10.82;8.95;;;;;;;13.22;40.21;100196.38;4999149;28;97019;-70
2021/05/13 08:24:55;;;;;;;13.57;9.80;;;;;;;13.21;40.26;100202.59;5002947;28;97637;-66
2021/05/13 08:27:23;;;;;;;13.27;9.00;;;;;;;13.20;40.21;100208.84;4995028;28;99705;-69
2021/05/13 08:29:52;;;;;;;19.02;12.55;;;;;;;13.21;40.38;100207.94;4992820;28;97495;-69
2021/05/13 08:32:19;;;;;;;16.67;11.45;;;;;;;13.21;40.32;100202.59;4991103;28;96992;-69
2021/05/13 08:34:47;;;;;;;18.25;12.60;;;;;;;13.28;40.17;100216.81;4992726;28;97915;-69
2021/05/13 08:37:15;;;;;;;17.90;11.63;;;;;;;13.37;39.98;100215.06;4986123;28;99256;-69
2021/05/13 08:39:43;;;;;;;14.50;11.10;;;;;;;13.45;39.74;100215.97;4988138;28;98049;-69
2021/05/13 08:42:12;;;;;;;17.33;10.30;;;;;;;13.48;39.62;100218.63;4992064;28;97852;-68
2021/05/13 08:44:41;;;;;;;13.07;9.98;;;;;;;13.49;39.91;100214.19;4995496;28;96998;-70
2021/05/13 08:47:10;;;;;;;13.48;9.48;;;;;;;13.51;40.03;100215.97;4996493;28;98124;-69
2021/05/13 08:49:38;;;;;;;16.45;10.50;;;;;;;13.56;39.82;100215.97;4999461;28;97554;-69
2021/05/13 08:52:08;;;;;;;12.85;11.15;;;;;;;13.52;39.62;100211.50;4995617;28;97279;-69
2021/05/13 08:54:35;;;;;;;20.38;13.00;;;;;;;13.53;39.93;100210.63;4991933;28;98014;-72
2021/05/13 08:57:04;;;;;;;19.70;13.05;;;;;;;13.54;39.92;100207.06;4989831;28;97694;-70
2021/05/13 08:59:31;;;;;;;14.55;10.55;;;;;;;13.55;39.94;100209.72;4997534;28;96965;-71
2021/05/13 09:02:00;;;;;;;17.90;13.43;;;;;;;13.55;39.99;100199.03;4997619;28;97298;-72
2021/05/13 09:04:37;;;;;;;17.70;12.13;;;;;;;13.59;40.14;100200.81;4999191;28;101164;-71
2021/05/13 09:07:14;;;;;;;15.35;11.27;;;;;;;13.57;40.10;100201.72;4997594;28;97663;-69
2021/05/13 09:10:00;;;;;;;15.65;11.25;;;;;;;13.60;40.26;100199.94;4999917;28;97230;-70
2021/05/13 09:12:30;;;;;;;19.15;13.00;;;;;;;13.59;40.26;100198.13;4994628;28;98122;-71
2021/05/13 09:14:59;;;;;;;19.17;12.90;;;;;;;13.65;40.05;100198.16;4997808;28;97770;-70
2021/05/13 09:17:29;;;;;;;18.98;12.55;;;;;;;13.64;39.88;100193.66;4995391;28;96803;-70
2021/05/13 09:19:59;;;;;;;18.90;13.43;;;;;;;13.71;39.98;100202.59;4992844;28;97619;-69
2021/05/13 09:22:28;;;;;;;20.42;12.77;;;;;;;13.71;40.07;100195.47;4995237;28;97485;-69
2021/05/13 09:24:58;;;;;;;22.33;13.70;;;;;;;13.73;39.83;100192.78;4997168;28;99239;-69
2021/05/13 09:27:29;;;;;;;25.10;17.60;;;;;;;13.70;39.89;100196.34;4997461;28;97925;-70
2021/05/13 09:30:08;;;;;;;23.35;14.02;;;;;;;13.71;40.07;100192.81;4996743;28;97982;-70
2021/05/13 09:32:37;;;;;;;22.17;13.30;;;;;;;13.64;39.96;100182.97;4999666;28;97900;-68
2021/05/13 09:35:08;;;;;;;21.83;13.85;;;;;;;13.62;40.01;100176.75;4993170;28;97923;-70
2021/05/13 09:37:38;;;;;;;17.90;14.30;;;;;;;13.64;40.02;100182.97;4990112;28;100310;-69
2021/05/13 09:40:08;;;;;;;20.58;13.38;;;;;;;13.61;40.07;100179.41;4993745;28;98728;-71
2021/05/13 09:42:36;;;;;;;21.92;13.05;;;;;;;13.59;40.03;100176.75;4996965;28;97169;-69
2021/05/13 09:45:06;;;;;;;22.38;13.77;;;;;;;13.53;39.97;100174.06;4994767;28;99094;-70
2021/05/13 09:47:34;;;;;;;18.25;12.77;;;;;;;13.52;40.00;100180.31;4992546;28;98849;-69
2021/05/13 09:50:14;;;;;;;18.67;12.75;;;;;;;13.54;39.93;100183.00;4999663;28;98088;-70
2021/05/13 09:52:47;;;;;;;18.75;12.00;;;;;;;13.50;40.08;100176.75;5001710;28;97377;-71
2021/05/13 09:55:20;;;;;;;19.52;12.50;;;;;;;13.53;40.08;100182.09;4986602;28;99148;-70
2021/05/13 09:57:50;;;;;;;16.58;11.45;;;;;;;13.54;39.93;100181.22;4995957;28;99969;-69
2021/05/13 10:00:52;;;;;;;18.17;12.32;;;;;;;13.49;40.29;100185.69;4996096;28;98686;-69
2021/05/13 10:03:23;;;;;;;18.17;12.77;;;;;;;13.50;40.08;100181.22;4998242;28;97132;-68
2021/05/13 10:05:53;;;;;;;20.77;13.57;;;;;;;13.53;39.99;100186.56;4998700;28;97764;-69
2021/05/13 10:08:21;;;;;;;18.23;12.95;;;;;;;13.54;40.02;100188.34;4997930;28;99704;-70
2021/05/13 10:10:50;;;;;;;17.52;11.98;;;;;;;13.54;39.96;100183.88;5000191;28;97202;-69
2021/05/13 10:13:20;;;;;;;19.05;11.68;;;;;;;13.54;39.95;100186.56;4997887;28;97040;-69
2021/05/13 10:15:48;;;;;;;18.67;11.10;;;;;;;13.58;39.90;100188.34;4989116;28;102270;-69
2021/05/13 10:18:23;;;;;;;16.70;11.95;;;;;;;13.58;39.90;100180.34;4992304;28;96924;-68
2021/05/13 10:20:55;;;;;;;15.30;10.43;;;;;;;13.58;39.95;100184.78;4991468;28;97993;-68
2021/05/13 10:23:24;;;;;;;15.90;10.77;;;;;;;13.61;39.91;100188.34;4995217;28;97044;-68
2021/05/13 10:25:52;;;;;;;19.20;11.77;;;;;;;13.65;39.60;100182.09;4998178;28;97879;-69
2021/05/13 10:28:28;;;;;;;16.85;10.98;;;;;;;13.72;39.88;100182.97;4999403;28;98066;-68
2021/05/13 10:31:04;;;;;;;17.73;11.13;;;;;;;13.80;39.70;100184.81;5000854;28;97002;-69
2021/05/13 10:33:47;;;;;;;15.50;11.98;;;;;;;13.79;39.78;100182.09;4999899;28;97627;-69
2021/05/13 10:36:22;;;;;;;17.83;11.85;;;;;;;13.75;39.70;100178.50;4995528;28;97705;-68
2021/05/13 10:38:51;;;;;;;17.98;11.68;;;;;;;13.74;39.58;100186.53;5000346;28;98022;-69
2021/05/13 10:41:40;;;;;;;18.60;12.88;;;;;;;13.71;39.88;100175.88;4986243;28;97691;-69
2021/05/13 10:44:33;;;;;;;18.83;11.80;;;;;;;13.75;39.93;100174.97;4993513;28;97110;-68
2021/05/13 10:47:02;;;;;;;17.50;11.63;;;;;;;13.72;39.69;100178.53;4994546;28;98159;-69
2021/05/13 10:49:30;;;;;;;17.88;12.25;;;;;;;13.75;39.62;100181.19;4984966;28;99365;-69
2021/05/13 10:52:30;;;;;;;20.30;12.70;;;;;;;13.84;39.78;100189.22;4992568;28;97925;-69
2021/05/13 10:54:58;;;;;;;20.15;13.27;;;;;;;13.83;39.60;100184.78;4993842;28;96907;-70
2021/05/13 10:57:26;;;;;;;19.15;13.43;;;;;;;13.84;39.59;100183.88;4995864;28;99595;-69
2021/05/13 11:00:26;;;;;;;20.95;12.82;;;;;;;13.91;39.76;100182.09;4994423;28;98129;-68
2021/05/13 11:02:54;;;;;;;20.48;12.65;;;;;;;13.90;39.61;100183.88;4997670;28;97318;-69
2021/05/13 11:05:40;;;;;;;18.23;11.90;;;;;;;13.96;39.96;100193.69;4997312;28;96985;-69
2021/05/13 11:08:28;;;;;;;15.57;10.90;;;;;;;13.93;39.62;100186.53;4987154;28;97906;-68
2021/05/13 11:10:59;;;;;;;16.90;10.65;;;;;;;13.84;39.72;100189.22;4993760;28;97332;-67
2021/05/13 11:13:47;;;;;;;18.88;11.80;;;;;;;13.89;39.81;100186.56;4991470;28;96931;-70
2021/05/13 11:16:44;;;;;;;16.73;10.90;;;;;;;13.93;39.79;100178.50;4996613;28;97181;-69
2021/05/13 11:19:16;;;;;;;17.20;11.23;;;;;;;13.91;41.40;100183.00;4998255;28;97989;-70
2021/05/13 11:22:01;;;;;;;18.27;10.65;;;;;;;13.97;39.76;100172.25;5002043;28;97872;-70
2021/05/13 11:24:34;;;;;;;15.00;9.95;;;;;;;13.96;39.50;100177.63;4999094;28;96784;-70
2021/05/13 11:27:03;;;;;;;18.08;11.23;;;;;;;14.01;39.47;100181.16;4997342;28;98242;-70
2021/05/13 11:29:48;;;;;;;17.30;11.93;;;;;;;14.02;39.66;100177.63;4994938;28;98487;-69
2021/05/13 11:32:16;;;;;;;17.55;11.70;;;;;;;14.05;39.34;100181.19;4996744;28;98378;-69